Meteo Giornale » Osservazioni meteo Italia » Brescia-Ghedi

ore: 13:55 - Osservazioni Meteo Brescia-Ghedi
Lat. 45° 25' N Lon. 10° 17' E Alt. 102 metri s.l.m.

sereno Europe/Rome

25 °C

Sereno

Temp. 24 Ore

16 °C

26 °C

Nord

0 Km/h

Dew point 9 °C

Umidità 36 %

Visibilità  10 Km

Il sole sorge alle ore 05:35

Il sole tramonta alle ore 20:56

Data e Ora Cielo e Fenomeni T °C DP °C Um. % Pres. hPa Vis. km Vento km/h
Oggi h: 13:55 sereno Sereno 25 9 36 1018 10 N 0
Oggi h: 12:55 sereno Sereno 25 10 38 1019 10 N 0
Oggi h: 11:55 sereno Sereno 24 9 38 1019 10 N 0
Oggi h: 10:55 sereno Sereno 23 10 43 1019 10 N 0
Oggi h: 09:55 nuvoloso Nuvoloso 22 10 46 1019 10 N 0
Oggi h: 08:55 nuvoloso Nuvoloso 20 11 56 1019 10 N 0
Oggi h: 07:55 nuvoloso Nuvoloso 18 11 63 1018 10 N 0
Oggi h: 06:55 nuvoloso Nuvoloso 17 11 67 1018 10 N 0
Oggi h: 05:55 nuvoloso Nuvoloso 16 10 67 1018 10 N 0
Oggi h: 04:55 nuvoloso Nuvoloso 17 11 67 1018 10 N 0
Oggi h: 03:55 nuvoloso Nuvoloso 17 11 67 1018 10 N 0
Oggi h: 02:55 nuvoloso Nuvoloso 19 11 59 1018 10 N 0
Oggi h: 00:55 nuvoloso Nuvoloso 19 12 63 1018 10 N 0
Ieri h: 23:55 nuvoloso Nuvoloso 20 13 64 1018 10 N 0
Ieri h: 22:55 nuvoloso Nuvoloso 21 14 64 1017 10 N 0
Ieri h: 21:55 nuvoloso Nuvoloso 21 15 68 1016 10 N 0
Ieri h: 20:55 nuvoloso Nuvoloso 22 13 56 1016 10 N 0
Ieri h: 19:55 nuvoloso Nuvoloso 25 12 44 1015 10 N 0
Ieri h: 18:55 nuvoloso Nuvoloso 25 12 44 1015 10 N 0
Ieri h: 17:55 nuvoloso Nuvoloso 26 12 41 1015 10 N 0
Ieri h: 16:55 nuvoloso Nuvoloso 25 12 44 1016 10 N 0
Ieri h: 15:55 nuvoloso Nuvoloso 26 12 41 1016 10 N 0
Ieri h: 14:55 nuvoloso Nuvoloso 25 12 44 1016 10 N 0